sensor_id;sensor_type;location;lat;lon;timestamp;temperature;humidity
7784;DHT22;19359;51.402;6.778;2022-09-09T00:02:21;15.90;99.90
7784;DHT22;19359;51.402;6.778;2022-09-09T00:04:58;15.90;99.90
7784;DHT22;19359;51.402;6.778;2022-09-09T00:07:34;15.90;99.90
7784;DHT22;19359;51.402;6.778;2022-09-09T00:10:13;15.80;99.90
7784;DHT22;19359;51.402;6.778;2022-09-09T00:12:51;15.80;99.90
7784;DHT22;19359;51.402;6.778;2022-09-09T00:15:23;15.80;99.90
7784;DHT22;19359;51.402;6.778;2022-09-09T00:17:56;15.80;99.90
7784;DHT22;19359;51.402;6.778;2022-09-09T00:20:29;15.80;99.90
7784;DHT22;19359;51.402;6.778;2022-09-09T00:23:02;15.90;99.90
7784;DHT22;19359;51.402;6.778;2022-09-09T00:25:37;15.80;99.90
7784;DHT22;19359;51.402;6.778;2022-09-09T00:28:13;15.80;99.90
7784;DHT22;19359;51.402;6.778;2022-09-09T00:30:41;15.80;99.90
7784;DHT22;19359;51.402;6.778;2022-09-09T00:33:12;15.80;99.90
7784;DHT22;19359;51.402;6.778;2022-09-09T00:35:44;15.70;99.90
7784;DHT22;19359;51.402;6.778;2022-09-09T00:38:13;15.80;99.90
7784;DHT22;19359;51.402;6.778;2022-09-09T00:40:45;15.80;99.90
7784;DHT22;19359;51.402;6.778;2022-09-09T00:43:28;15.70;99.90
7784;DHT22;19359;51.402;6.778;2022-09-09T00:49:04;15.70;99.90
7784;DHT22;19359;51.402;6.778;2022-09-09T00:51:43;15.70;99.90
7784;DHT22;19359;51.402;6.778;2022-09-09T00:54:26;15.70;99.90
7784;DHT22;19359;51.402;6.778;2022-09-09T00:57:03;15.80;99.90
7784;DHT22;19359;51.402;6.778;2022-09-09T00:59:44;15.70;99.90
7784;DHT22;19359;51.402;6.778;2022-09-09T01:02:19;15.70;99.90
7784;DHT22;19359;51.402;6.778;2022-09-09T01:04:49;15.70;99.90
7784;DHT22;19359;51.402;6.778;2022-09-09T01:07:17;15.60;99.90
7784;DHT22;19359;51.402;6.778;2022-09-09T01:09:54;15.60;99.90
7784;DHT22;19359;51.402;6.778;2022-09-09T01:12:33;15.60;99.90
7784;DHT22;19359;51.402;6.778;2022-09-09T01:15:10;15.50;99.90
7784;DHT22;19359;51.402;6.778;2022-09-09T01:17:46;15.50;99.90
7784;DHT22;19359;51.402;6.778;2022-09-09T01:20:18;15.50;99.90
7784;DHT22;19359;51.402;6.778;2022-09-09T01:22:58;15.40;99.90
7784;DHT22;19359;51.402;6.778;2022-09-09T01:26:04;15.30;99.90
7784;DHT22;19359;51.402;6.778;2022-09-09T01:28:33;15.30;99.90
7784;DHT22;19359;51.402;6.778;2022-09-09T01:31:03;15.30;99.90
7784;DHT22;19359;51.402;6.778;2022-09-09T01:33:31;15.20;99.90
7784;DHT22;19359;51.402;6.778;2022-09-09T01:36:00;15.30;99.90
7784;DHT22;19359;51.402;6.778;2022-09-09T01:38:30;15.20;99.90
7784;DHT22;19359;51.402;6.778;2022-09-09T01:40:58;15.10;99.90
7784;DHT22;19359;51.402;6.778;2022-09-09T01:43:27;15.20;99.90
7784;DHT22;19359;51.402;6.778;2022-09-09T01:45:56;15.20;99.90
7784;DHT22;19359;51.402;6.778;2022-09-09T01:48:25;15.20;99.90
7784;DHT22;19359;51.402;6.778;2022-09-09T01:50:52;15.20;99.90
7784;DHT22;19359;51.402;6.778;2022-09-09T01:53:20;15.30;99.90
7784;DHT22;19359;51.402;6.778;2022-09-09T01:55:57;15.30;99.90
7784;DHT22;19359;51.402;6.778;2022-09-09T01:58:32;15.20;99.90
7784;DHT22;19359;51.402;6.778;2022-09-09T02:01:07;15.30;99.90
7784;DHT22;19359;51.402;6.778;2022-09-09T02:03:37;15.30;99.90
7784;DHT22;19359;51.402;6.778;2022-09-09T02:06:13;15.30;99.90
7784;DHT22;19359;51.402;6.778;2022-09-09T02:08:45;15.30;99.90
7784;DHT22;19359;51.402;6.778;2022-09-09T02:11:14;15.30;99.90
7784;DHT22;19359;51.402;6.778;2022-09-09T02:13:45;15.30;99.90
7784;DHT22;19359;51.402;6.778;2022-09-09T02:16:15;15.30;99.90
7784;DHT22;19359;51.402;6.778;2022-09-09T02:18:49;15.30;99.90
7784;DHT22;19359;51.402;6.778;2022-09-09T02:21:18;15.40;99.90
7784;DHT22;19359;51.402;6.778;2022-09-09T02:23:47;15.40;99.90
7784;DHT22;19359;51.402;6.778;2022-09-09T02:26:19;15.40;99.90
7784;DHT22;19359;51.402;6.778;2022-09-09T02:28:51;15.50;99.90
7784;DHT22;19359;51.402;6.778;2022-09-09T02:31:21;15.50;99.90
7784;DHT22;19359;51.402;6.778;2022-09-09T02:33:53;15.50;99.90
7784;DHT22;19359;51.402;6.778;2022-09-09T02:36:23;15.50;99.90
7784;DHT22;19359;51.402;6.778;2022-09-09T02:38:51;15.50;99.90
7784;DHT22;19359;51.402;6.778;2022-09-09T02:41:23;15.50;99.90
7784;DHT22;19359;51.402;6.778;2022-09-09T02:43:52;15.50;99.90
7784;DHT22;19359;51.402;6.778;2022-09-09T02:46:34;15.60;99.90
7784;DHT22;19359;51.402;6.778;2022-09-09T02:49:06;15.50;99.90
7784;DHT22;19359;51.402;6.778;2022-09-09T02:51:40;15.50;99.90
7784;DHT22;19359;51.402;6.778;2022-09-09T02:54:17;15.50;99.90
7784;DHT22;19359;51.402;6.778;2022-09-09T02:56:51;15.50;99.90
7784;DHT22;19359;51.402;6.778;2022-09-09T02:59:21;15.50;99.90
7784;DHT22;19359;51.402;6.778;2022-09-09T03:01:49;15.50;99.90
7784;DHT22;19359;51.402;6.778;2022-09-09T03:04:16;15.40;99.90
7784;DHT22;19359;51.402;6.778;2022-09-09T03:06:43;15.50;99.90
7784;DHT22;19359;51.402;6.778;2022-09-09T03:09:09;15.50;99.90
7784;DHT22;19359;51.402;6.778;2022-09-09T03:11:37;15.50;99.90
7784;DHT22;19359;51.402;6.778;2022-09-09T03:14:04;15.50;99.90
7784;DHT22;19359;51.402;6.778;2022-09-09T03:16:33;15.50;99.90
7784;DHT22;19359;51.402;6.778;2022-09-09T03:19:00;15.50;99.90
7784;DHT22;19359;51.402;6.778;2022-09-09T03:21:26;15.50;99.90
7784;DHT22;19359;51.402;6.778;2022-09-09T03:23:53;15.50;99.90
7784;DHT22;19359;51.402;6.778;2022-09-09T03:26:21;15.50;99.90
7784;DHT22;19359;51.402;6.778;2022-09-09T03:28:48;15.50;99.90
7784;DHT22;19359;51.402;6.778;2022-09-09T03:31:17;15.50;99.90
7784;DHT22;19359;51.402;6.778;2022-09-09T03:33:46;15.60;99.90
7784;DHT22;19359;51.402;6.778;2022-09-09T03:36:13;15.60;99.90
7784;DHT22;19359;51.402;6.778;2022-09-09T03:38:40;15.60;99.90
7784;DHT22;19359;51.402;6.778;2022-09-09T03:41:07;15.60;99.90
7784;DHT22;19359;51.402;6.778;2022-09-09T03:43:34;15.70;99.90
7784;DHT22;19359;51.402;6.778;2022-09-09T03:46:01;15.70;99.90
7784;DHT22;19359;51.402;6.778;2022-09-09T03:48:28;15.60;99.90
7784;DHT22;19359;51.402;6.778;2022-09-09T03:50:58;15.70;99.90
7784;DHT22;19359;51.402;6.778;2022-09-09T03:53:27;15.60;99.90
7784;DHT22;19359;51.402;6.778;2022-09-09T03:55:58;15.60;99.90
7784;DHT22;19359;51.402;6.778;2022-09-09T03:58:27;18.40;99.90
7784;DHT22;19359;51.402;6.778;2022-09-09T04:00:55;15.40;99.90
7784;DHT22;19359;51.402;6.778;2022-09-09T04:03:22;15.40;99.90
7784;DHT22;19359;51.402;6.778;2022-09-09T04:05:50;15.40;99.90
7784;DHT22;19359;51.402;6.778;2022-09-09T04:08:18;15.40;99.90
7784;DHT22;19359;51.402;6.778;2022-09-09T04:10:45;15.40;99.90
7784;DHT22;19359;51.402;6.778;2022-09-09T04:13:13;15.40;99.90
7784;DHT22;19359;51.402;6.778;2022-09-09T04:15:41;15.30;99.90
7784;DHT22;19359;51.402;6.778;2022-09-09T04:18:09;15.30;99.90
7784;DHT22;19359;51.402;6.778;2022-09-09T04:20:37;15.30;99.90
7784;DHT22;19359;51.402;6.778;2022-09-09T04:23:04;15.30;99.90
7784;DHT22;19359;51.402;6.778;2022-09-09T04:25:32;15.40;99.90
7784;DHT22;19359;51.402;6.778;2022-09-09T04:27:59;15.30;99.90
7784;DHT22;19359;51.402;6.778;2022-09-09T04:30:26;15.30;99.90
7784;DHT22;19359;51.402;6.778;2022-09-09T04:32:53;15.40;99.90
7784;DHT22;19359;51.402;6.778;2022-09-09T04:35:20;15.40;99.90
7784;DHT22;19359;51.402;6.778;2022-09-09T04:37:47;15.40;99.90
7784;DHT22;19359;51.402;6.778;2022-09-09T04:40:14;15.50;99.90
7784;DHT22;19359;51.402;6.778;2022-09-09T04:42:42;15.50;99.90
7784;DHT22;19359;51.402;6.778;2022-09-09T04:45:10;15.50;99.90
7784;DHT22;19359;51.402;6.778;2022-09-09T04:47:38;15.50;99.90
7784;DHT22;19359;51.402;6.778;2022-09-09T04:50:07;15.50;99.90
7784;DHT22;19359;51.402;6.778;2022-09-09T04:52:34;15.50;99.90
7784;DHT22;19359;51.402;6.778;2022-09-09T04:55:02;15.50;99.90
7784;DHT22;19359;51.402;6.778;2022-09-09T04:57:28;15.50;99.90
7784;DHT22;19359;51.402;6.778;2022-09-09T04:59:59;15.50;99.90
7784;DHT22;19359;51.402;6.778;2022-09-09T05:02:27;15.50;99.90
7784;DHT22;19359;51.402;6.778;2022-09-09T05:04:55;15.60;99.90
7784;DHT22;19359;51.402;6.778;2022-09-09T05:07:22;15.70;99.90
7784;DHT22;19359;51.402;6.778;2022-09-09T05:09:49;15.60;99.90
7784;DHT22;19359;51.402;6.778;2022-09-09T05:12:16;15.60;99.90
7784;DHT22;19359;51.402;6.778;2022-09-09T05:14:43;15.60;99.90
7784;DHT22;19359;51.402;6.778;2022-09-09T05:17:11;15.60;99.90
7784;DHT22;19359;51.402;6.778;2022-09-09T05:19:38;15.60;99.90
7784;DHT22;19359;51.402;6.778;2022-09-09T05:22:05;15.60;99.90
7784;DHT22;19359;51.402;6.778;2022-09-09T05:24:32;15.60;99.90
7784;DHT22;19359;51.402;6.778;2022-09-09T05:26:59;15.60;99.90
7784;DHT22;19359;51.402;6.778;2022-09-09T05:29:27;15.60;99.90
7784;DHT22;19359;51.402;6.778;2022-09-09T05:31:54;15.60;99.90
7784;DHT22;19359;51.402;6.778;2022-09-09T05:34:22;15.60;99.90
7784;DHT22;19359;51.402;6.778;2022-09-09T05:36:49;15.60;99.90
7784;DHT22;19359;51.402;6.778;2022-09-09T05:39:17;15.70;99.90
7784;DHT22;19359;51.402;6.778;2022-09-09T05:41:43;15.70;99.90
7784;DHT22;19359;51.402;6.778;2022-09-09T05:44:10;15.70;99.90
7784;DHT22;19359;51.402;6.778;2022-09-09T05:46:37;15.70;99.90
7784;DHT22;19359;51.402;6.778;2022-09-09T05:49:04;15.80;99.90
7784;DHT22;19359;51.402;6.778;2022-09-09T05:51:32;15.80;99.90
7784;DHT22;19359;51.402;6.778;2022-09-09T05:53:59;15.90;99.90
7784;DHT22;19359;51.402;6.778;2022-09-09T05:56:27;15.80;99.90
7784;DHT22;19359;51.402;6.778;2022-09-09T05:58:55;15.90;99.90
7784;DHT22;19359;51.402;6.778;2022-09-09T06:01:24;16.00;99.90
7784;DHT22;19359;51.402;6.778;2022-09-09T06:03:52;16.00;99.90
7784;DHT22;19359;51.402;6.778;2022-09-09T06:06:20;16.00;99.90
7784;DHT22;19359;51.402;6.778;2022-09-09T06:08:50;16.00;99.90
7784;DHT22;19359;51.402;6.778;2022-09-09T06:11:19;16.10;99.90
7784;DHT22;19359;51.402;6.778;2022-09-09T06:13:47;16.20;99.90
7784;DHT22;19359;51.402;6.778;2022-09-09T06:16:18;16.20;99.90
7784;DHT22;19359;51.402;6.778;2022-09-09T06:18:45;16.20;99.90
7784;DHT22;19359;51.402;6.778;2022-09-09T06:21:16;16.30;99.90
7784;DHT22;19359;51.402;6.778;2022-09-09T06:23:43;16.30;99.90
7784;DHT22;19359;51.402;6.778;2022-09-09T06:26:13;16.30;99.90
7784;DHT22;19359;51.402;6.778;2022-09-09T06:28:40;16.40;99.90
7784;DHT22;19359;51.402;6.778;2022-09-09T06:31:10;16.40;99.90
7784;DHT22;19359;51.402;6.778;2022-09-09T06:33:38;16.60;99.90
7784;DHT22;19359;51.402;6.778;2022-09-09T06:36:07;16.60;99.90
7784;DHT22;19359;51.402;6.778;2022-09-09T06:38:36;16.70;99.90
7784;DHT22;19359;51.402;6.778;2022-09-09T06:41:03;16.80;99.90
7784;DHT22;19359;51.402;6.778;2022-09-09T06:43:32;16.80;99.90
7784;DHT22;19359;51.402;6.778;2022-09-09T06:46:01;16.80;99.90
7784;DHT22;19359;51.402;6.778;2022-09-09T06:48:29;16.70;99.90
7784;DHT22;19359;51.402;6.778;2022-09-09T06:51:03;16.80;99.90
7784;DHT22;19359;51.402;6.778;2022-09-09T06:53:32;16.80;99.90
7784;DHT22;19359;51.402;6.778;2022-09-09T06:55:59;16.80;99.90
7784;DHT22;19359;51.402;6.778;2022-09-09T06:58:26;16.80;99.90
7784;DHT22;19359;51.402;6.778;2022-09-09T07:01:03;16.80;99.90
7784;DHT22;19359;51.402;6.778;2022-09-09T07:03:29;16.90;99.90
7784;DHT22;19359;51.402;6.778;2022-09-09T07:05:57;16.90;99.90
7784;DHT22;19359;51.402;6.778;2022-09-09T07:08:28;16.90;99.90
7784;DHT22;19359;51.402;6.778;2022-09-09T07:11:02;16.90;99.90
7784;DHT22;19359;51.402;6.778;2022-09-09T07:13:30;17.00;99.90
7784;DHT22;19359;51.402;6.778;2022-09-09T07:16:04;17.00;99.90
7784;DHT22;19359;51.402;6.778;2022-09-09T07:18:32;17.00;99.90
7784;DHT22;19359;51.402;6.778;2022-09-09T07:21:00;17.10;99.90
7784;DHT22;19359;51.402;6.778;2022-09-09T07:23:28;17.20;99.90
7784;DHT22;19359;51.402;6.778;2022-09-09T07:25:55;17.30;99.90
7784;DHT22;19359;51.402;6.778;2022-09-09T07:28:24;17.40;99.90
7784;DHT22;19359;51.402;6.778;2022-09-09T07:30:55;17.40;99.90
7784;DHT22;19359;51.402;6.778;2022-09-09T07:33:24;17.40;99.90
7784;DHT22;19359;51.402;6.778;2022-09-09T07:35:51;17.40;99.90
7784;DHT22;19359;51.402;6.778;2022-09-09T07:38:18;17.40;99.90
7784;DHT22;19359;51.402;6.778;2022-09-09T07:40:45;17.50;99.90
7784;DHT22;19359;51.402;6.778;2022-09-09T07:43:12;17.60;99.90
7784;DHT22;19359;51.402;6.778;2022-09-09T07:45:39;17.50;99.90
7784;DHT22;19359;51.402;6.778;2022-09-09T07:48:08;17.50;99.90
7784;DHT22;19359;51.402;6.778;2022-09-09T07:50:36;17.50;99.90
7784;DHT22;19359;51.402;6.778;2022-09-09T07:53:03;17.50;99.90
7784;DHT22;19359;51.402;6.778;2022-09-09T07:55:31;17.50;99.90
7784;DHT22;19359;51.402;6.778;2022-09-09T07:57:58;17.40;99.90
7784;DHT22;19359;51.402;6.778;2022-09-09T08:00:25;17.40;99.90
7784;DHT22;19359;51.402;6.778;2022-09-09T08:02:53;17.50;99.90
7784;DHT22;19359;51.402;6.778;2022-09-09T08:05:20;17.70;99.90
7784;DHT22;19359;51.402;6.778;2022-09-09T08:07:49;17.90;99.90
7784;DHT22;19359;51.402;6.778;2022-09-09T08:10:16;18.10;99.90
7784;DHT22;19359;51.402;6.778;2022-09-09T08:12:43;18.30;99.90
7784;DHT22;19359;51.402;6.778;2022-09-09T08:15:10;18.30;99.90
7784;DHT22;19359;51.402;6.778;2022-09-09T08:17:38;18.30;99.90
7784;DHT22;19359;51.402;6.778;2022-09-09T08:20:05;18.30;99.90
7784;DHT22;19359;51.402;6.778;2022-09-09T08:22:32;18.30;99.90
7784;DHT22;19359;51.402;6.778;2022-09-09T08:25:01;18.40;99.90
7784;DHT22;19359;51.402;6.778;2022-09-09T08:27:27;18.70;99.90
7784;DHT22;19359;51.402;6.778;2022-09-09T08:29:55;18.80;99.90
7784;DHT22;19359;51.402;6.778;2022-09-09T08:32:22;18.80;99.90
7784;DHT22;19359;51.402;6.778;2022-09-09T08:34:49;18.80;99.90
7784;DHT22;19359;51.402;6.778;2022-09-09T08:37:16;18.80;99.90
7784;DHT22;19359;51.402;6.778;2022-09-09T08:39:44;19.00;97.60
7784;DHT22;19359;51.402;6.778;2022-09-09T08:42:25;19.10;99.90
7784;DHT22;19359;51.402;6.778;2022-09-09T08:45:06;19.10;73.20
7784;DHT22;19359;51.402;6.778;2022-09-09T08:47:44;19.30;69.80
7784;DHT22;19359;51.402;6.778;2022-09-09T08:50:18;19.40;71.30
7784;DHT22;19359;51.402;6.778;2022-09-09T08:52:53;19.60;38.90
7784;DHT22;19359;51.402;6.778;2022-09-09T08:55:26;19.70;22.80
7784;DHT22;19359;51.402;6.778;2022-09-09T08:57:58;19.80;14.80
7784;DHT22;19359;51.402;6.778;2022-09-09T09:00:33;19.90;5.50
7784;DHT22;19359;51.402;6.778;2022-09-09T09:03:06;20.00;9.50
7784;DHT22;19359;51.402;6.778;2022-09-09T09:05:37;19.90;14.30
7784;DHT22;19359;51.402;6.778;2022-09-09T09:08:18;19.90;4.00
7784;DHT22;19359;51.402;6.778;2022-09-09T09:10:50;19.70;1.00
7784;DHT22;19359;51.402;6.778;2022-09-09T09:13:20;19.50;1.00
7784;DHT22;19359;51.402;6.778;2022-09-09T09:15:52;19.50;9.40
7784;DHT22;19359;51.402;6.778;2022-09-09T09:18:22;19.50;16.20
7784;DHT22;19359;51.402;6.778;2022-09-09T09:20:58;19.50;17.20
7784;DHT22;19359;51.402;6.778;2022-09-09T09:23:32;19.60;4.70
7784;DHT22;19359;51.402;6.778;2022-09-09T09:26:01;19.80;9.60
7784;DHT22;19359;51.402;6.778;2022-09-09T09:28:31;20.00;1.00
7784;DHT22;19359;51.402;6.778;2022-09-09T09:31:03;20.10;1.00
7784;DHT22;19359;51.402;6.778;2022-09-09T09:33:34;20.10;1.00
7784;DHT22;19359;51.402;6.778;2022-09-09T09:36:04;20.10;1.00
7784;DHT22;19359;51.402;6.778;2022-09-09T09:38:35;20.00;1.00
7784;DHT22;19359;51.402;6.778;2022-09-09T09:41:03;19.90;1.00
7784;DHT22;19359;51.402;6.778;2022-09-09T09:43:33;19.80;1.00
7784;DHT22;19359;51.402;6.778;2022-09-09T09:46:03;19.80;1.00
7784;DHT22;19359;51.402;6.778;2022-09-09T09:48:30;19.80;1.00
7784;DHT22;19359;51.402;6.778;2022-09-09T09:51:00;19.80;1.00
7784;DHT22;19359;51.402;6.778;2022-09-09T09:53:30;19.80;1.00
7784;DHT22;19359;51.402;6.778;2022-09-09T09:56:00;19.90;1.00
7784;DHT22;19359;51.402;6.778;2022-09-09T09:58:29;19.90;1.00
7784;DHT22;19359;51.402;6.778;2022-09-09T10:01:01;20.20;1.00
7784;DHT22;19359;51.402;6.778;2022-09-09T10:03:29;20.40;1.00
7784;DHT22;19359;51.402;6.778;2022-09-09T10:05:57;20.50;1.00
7784;DHT22;19359;51.402;6.778;2022-09-09T10:08:24;20.50;1.00
7784;DHT22;19359;51.402;6.778;2022-09-09T10:11:22;20.70;1.00
7784;DHT22;19359;51.402;6.778;2022-09-09T10:13:57;20.80;1.00
7784;DHT22;19359;51.402;6.778;2022-09-09T10:16:39;20.80;1.00
7784;DHT22;19359;51.402;6.778;2022-09-09T10:19:13;20.70;1.00
7784;DHT22;19359;51.402;6.778;2022-09-09T10:22:02;20.70;1.00
7784;DHT22;19359;51.402;6.778;2022-09-09T10:24:44;20.70;1.00
7784;DHT22;19359;51.402;6.778;2022-09-09T10:27:19;20.70;1.00
7784;DHT22;19359;51.402;6.778;2022-09-09T10:30:00;20.70;1.00
7784;DHT22;19359;51.402;6.778;2022-09-09T10:32:37;20.60;1.00
7784;DHT22;19359;51.402;6.778;2022-09-09T10:35:12;20.60;1.00
7784;DHT22;19359;51.402;6.778;2022-09-09T10:37:54;20.50;1.00
7784;DHT22;19359;51.402;6.778;2022-09-09T10:40:30;20.40;1.00
7784;DHT22;19359;51.402;6.778;2022-09-09T10:43:04;20.20;1.00
7784;DHT22;19359;51.402;6.778;2022-09-09T10:45:41;20.00;1.00
7784;DHT22;19359;51.402;6.778;2022-09-09T10:48:22;19.90;1.00
7784;DHT22;19359;51.402;6.778;2022-09-09T10:50:56;19.90;1.00
7784;DHT22;19359;51.402;6.778;2022-09-09T10:53:36;19.90;1.00
7784;DHT22;19359;51.402;6.778;2022-09-09T10:56:10;20.10;1.00
7784;DHT22;19359;51.402;6.778;2022-09-09T10:58:43;20.10;1.00
7784;DHT22;19359;51.402;6.778;2022-09-09T11:01:15;20.30;1.00
7784;DHT22;19359;51.402;6.778;2022-09-09T11:03:52;20.50;1.00
7784;DHT22;19359;51.402;6.778;2022-09-09T11:06:26;20.70;1.00
7784;DHT22;19359;51.402;6.778;2022-09-09T11:08:56;20.80;1.00
7784;DHT22;19359;51.402;6.778;2022-09-09T11:11:28;20.90;1.00
7784;DHT22;19359;51.402;6.778;2022-09-09T11:14:00;20.70;1.00
7784;DHT22;19359;51.402;6.778;2022-09-09T11:16:29;20.50;1.00
7784;DHT22;19359;51.402;6.778;2022-09-09T11:19:03;20.50;1.00
7784;DHT22;19359;51.402;6.778;2022-09-09T11:21:33;20.40;1.00
7784;DHT22;19359;51.402;6.778;2022-09-09T11:24:04;20.20;1.00
7784;DHT22;19359;51.402;6.778;2022-09-09T11:26:38;20.40;1.00
7784;DHT22;19359;51.402;6.778;2022-09-09T11:29:24;20.40;1.00
7784;DHT22;19359;51.402;6.778;2022-09-09T11:32:03;20.50;1.00
7784;DHT22;19359;51.402;6.778;2022-09-09T11:34:43;20.80;1.00
7784;DHT22;19359;51.402;6.778;2022-09-09T11:37:37;21.10;1.00
7784;DHT22;19359;51.402;6.778;2022-09-09T11:40:15;21.40;1.00
7784;DHT22;19359;51.402;6.778;2022-09-09T11:42:43;21.50;1.00
7784;DHT22;19359;51.402;6.778;2022-09-09T11:45:22;21.40;1.00
7784;DHT22;19359;51.402;6.778;2022-09-09T11:47:52;21.20;1.00
7784;DHT22;19359;51.402;6.778;2022-09-09T11:50:31;21.10;1.00
7784;DHT22;19359;51.402;6.778;2022-09-09T11:53:17;21.10;1.00
7784;DHT22;19359;51.402;6.778;2022-09-09T11:55:46;21.10;1.00
7784;DHT22;19359;51.402;6.778;2022-09-09T11:58:17;21.20;1.00
7784;DHT22;19359;51.402;6.778;2022-09-09T12:00:46;21.30;1.00
7784;DHT22;19359;51.402;6.778;2022-09-09T12:03:39;21.30;1.00
7784;DHT22;19359;51.402;6.778;2022-09-09T12:06:15;21.10;1.00
7784;DHT22;19359;51.402;6.778;2022-09-09T12:08:45;20.90;1.00
7784;DHT22;19359;51.402;6.778;2022-09-09T12:11:23;20.80;1.00
7784;DHT22;19359;51.402;6.778;2022-09-09T12:13:53;20.70;1.00
7784;DHT22;19359;51.402;6.778;2022-09-09T12:16:29;20.70;1.00
7784;DHT22;19359;51.402;6.778;2022-09-09T12:19:14;20.60;1.00
7784;DHT22;19359;51.402;6.778;2022-09-09T12:21:48;20.50;1.00
7784;DHT22;19359;51.402;6.778;2022-09-09T12:24:21;20.70;1.00
7784;DHT22;19359;51.402;6.778;2022-09-09T12:26:56;21.40;1.00
7784;DHT22;19359;51.402;6.778;2022-09-09T12:29:28;21.70;1.00
7784;DHT22;19359;51.402;6.778;2022-09-09T12:32:02;21.40;1.00
7784;DHT22;19359;51.402;6.778;2022-09-09T12:34:38;21.00;1.00
7784;DHT22;19359;51.402;6.778;2022-09-09T12:37:14;20.80;1.00
7784;DHT22;19359;51.402;6.778;2022-09-09T12:39:45;20.40;1.00
7784;DHT22;19359;51.402;6.778;2022-09-09T12:42:18;19.80;99.90
7784;DHT22;19359;51.402;6.778;2022-09-09T12:44:56;19.20;99.90
7784;DHT22;19359;51.402;6.778;2022-09-09T12:47:26;18.70;99.90
7784;DHT22;19359;51.402;6.778;2022-09-09T12:49:55;18.30;99.90
7784;DHT22;19359;51.402;6.778;2022-09-09T12:52:27;17.80;99.90
7784;DHT22;19359;51.402;6.778;2022-09-09T12:54:57;17.60;99.90
7784;DHT22;19359;51.402;6.778;2022-09-09T12:57:25;17.50;99.90
7784;DHT22;19359;51.402;6.778;2022-09-09T13:00:05;17.50;99.90
7784;DHT22;19359;51.402;6.778;2022-09-09T13:02:33;17.40;99.90
7784;DHT22;19359;51.402;6.778;2022-09-09T13:05:08;17.30;99.90
7784;DHT22;19359;51.402;6.778;2022-09-09T13:07:41;17.30;99.90
7784;DHT22;19359;51.402;6.778;2022-09-09T13:10:11;17.20;99.90
7784;DHT22;19359;51.402;6.778;2022-09-09T13:12:38;17.20;99.90
7784;DHT22;19359;51.402;6.778;2022-09-09T13:15:13;17.40;99.90
7784;DHT22;19359;51.402;6.778;2022-09-09T13:17:42;17.60;99.90
7784;DHT22;19359;51.402;6.778;2022-09-09T13:20:17;17.70;99.90
7784;DHT22;19359;51.402;6.778;2022-09-09T13:22:47;18.10;99.90
7784;DHT22;19359;51.402;6.778;2022-09-09T13:25:21;18.40;99.90
7784;DHT22;19359;51.402;6.778;2022-09-09T13:28:01;18.80;99.90
7784;DHT22;19359;51.402;6.778;2022-09-09T13:30:30;18.80;99.90
7784;DHT22;19359;51.402;6.778;2022-09-09T13:33:21;18.90;99.90
7784;DHT22;19359;51.402;6.778;2022-09-09T13:35:50;19.00;99.90
7784;DHT22;19359;51.402;6.778;2022-09-09T13:38:20;19.20;99.90
7784;DHT22;19359;51.402;6.778;2022-09-09T13:40:56;19.60;99.90
7784;DHT22;19359;51.402;6.778;2022-09-09T13:43:26;19.60;99.90
7784;DHT22;19359;51.402;6.778;2022-09-09T13:45:54;19.80;99.90
7784;DHT22;19359;51.402;6.778;2022-09-09T13:48:22;19.90;99.90
7784;DHT22;19359;51.402;6.778;2022-09-09T13:50:54;20.10;99.90
7784;DHT22;19359;51.402;6.778;2022-09-09T13:53:23;20.30;99.90
7784;DHT22;19359;51.402;6.778;2022-09-09T13:55:50;21.10;99.90
7784;DHT22;19359;51.402;6.778;2022-09-09T13:58:18;21.30;99.90
7784;DHT22;19359;51.402;6.778;2022-09-09T14:00:45;20.90;99.90
7784;DHT22;19359;51.402;6.778;2022-09-09T14:03:12;21.50;99.90
7784;DHT22;19359;51.402;6.778;2022-09-09T14:05:40;22.20;99.90
7784;DHT22;19359;51.402;6.778;2022-09-09T14:08:11;21.80;99.90
7784;DHT22;19359;51.402;6.778;2022-09-09T14:10:40;21.30;99.90
7784;DHT22;19359;51.402;6.778;2022-09-09T14:13:07;21.70;99.90
7784;DHT22;19359;51.402;6.778;2022-09-09T14:15:34;22.20;99.90
7784;DHT22;19359;51.402;6.778;2022-09-09T14:18:01;22.30;99.90
7784;DHT22;19359;51.402;6.778;2022-09-09T14:20:28;21.90;99.90
7784;DHT22;19359;51.402;6.778;2022-09-09T14:22:55;21.60;99.90
7784;DHT22;19359;51.402;6.778;2022-09-09T14:25:23;21.30;99.90
7784;DHT22;19359;51.402;6.778;2022-09-09T14:27:51;20.90;99.90
7784;DHT22;19359;51.402;6.778;2022-09-09T14:30:18;20.90;99.90
7784;DHT22;19359;51.402;6.778;2022-09-09T14:32:45;20.70;99.90
7784;DHT22;19359;51.402;6.778;2022-09-09T14:35:12;20.40;99.90
7784;DHT22;19359;51.402;6.778;2022-09-09T14:37:39;19.90;99.90
7784;DHT22;19359;51.402;6.778;2022-09-09T14:40:06;19.60;99.90
7784;DHT22;19359;51.402;6.778;2022-09-09T14:42:33;18.30;99.90
7784;DHT22;19359;51.402;6.778;2022-09-09T14:45:02;16.80;99.90
7784;DHT22;19359;51.402;6.778;2022-09-09T14:47:28;16.90;99.90
7784;DHT22;19359;51.402;6.778;2022-09-09T14:49:55;16.40;99.90
7784;DHT22;19359;51.402;6.778;2022-09-09T14:52:22;16.40;99.90
7784;DHT22;19359;51.402;6.778;2022-09-09T14:54:49;16.40;99.90
7784;DHT22;19359;51.402;6.778;2022-09-09T14:57:16;16.50;99.90
7784;DHT22;19359;51.402;6.778;2022-09-09T14:59:42;16.50;99.90
7784;DHT22;19359;51.402;6.778;2022-09-09T15:02:11;16.60;99.90
7784;DHT22;19359;51.402;6.778;2022-09-09T15:04:39;16.70;99.90
7784;DHT22;19359;51.402;6.778;2022-09-09T15:07:06;16.60;99.90
7784;DHT22;19359;51.402;6.778;2022-09-09T15:09:32;16.70;99.90
7784;DHT22;19359;51.402;6.778;2022-09-09T15:11:59;16.70;99.90
7784;DHT22;19359;51.402;6.778;2022-09-09T15:14:27;16.70;99.90
7784;DHT22;19359;51.402;6.778;2022-09-09T15:16:54;16.60;99.90
7784;DHT22;19359;51.402;6.778;2022-09-09T15:19:22;16.70;99.90
7784;DHT22;19359;51.402;6.778;2022-09-09T15:21:48;16.70;99.90
7784;DHT22;19359;51.402;6.778;2022-09-09T15:24:15;16.80;99.90
7784;DHT22;19359;51.402;6.778;2022-09-09T15:26:42;17.00;99.90
7784;DHT22;19359;51.402;6.778;2022-09-09T15:29:09;17.20;99.90
7784;DHT22;19359;51.402;6.778;2022-09-09T15:31:36;17.70;99.90
7784;DHT22;19359;51.402;6.778;2022-09-09T15:34:04;18.10;99.90
7784;DHT22;19359;51.402;6.778;2022-09-09T15:36:34;18.70;99.90
7784;DHT22;19359;51.402;6.778;2022-09-09T15:39:02;19.30;99.90
7784;DHT22;19359;51.402;6.778;2022-09-09T15:41:29;19.70;99.90
7784;DHT22;19359;51.402;6.778;2022-09-09T15:43:57;19.70;99.90
7784;DHT22;19359;51.402;6.778;2022-09-09T15:46:28;19.60;99.90
7784;DHT22;19359;51.402;6.778;2022-09-09T15:48:56;19.60;99.90
7784;DHT22;19359;51.402;6.778;2022-09-09T15:51:25;19.20;99.90
7784;DHT22;19359;51.402;6.778;2022-09-09T15:53:58;19.00;99.90
7784;DHT22;19359;51.402;6.778;2022-09-09T15:56:26;18.90;99.90
7784;DHT22;19359;51.402;6.778;2022-09-09T15:58:55;18.80;99.90
7784;DHT22;19359;51.402;6.778;2022-09-09T16:01:24;18.60;99.90
7784;DHT22;19359;51.402;6.778;2022-09-09T16:03:51;18.50;99.90
7784;DHT22;19359;51.402;6.778;2022-09-09T16:06:20;18.40;99.90
7784;DHT22;19359;51.402;6.778;2022-09-09T16:08:49;18.30;99.90
7784;DHT22;19359;51.402;6.778;2022-09-09T16:11:19;18.30;99.90
7784;DHT22;19359;51.402;6.778;2022-09-09T16:13:48;18.10;99.90
7784;DHT22;19359;51.402;6.778;2022-09-09T16:16:16;18.10;99.90